createdAt,value
2022-09-28T00:01:22.115Z,6.81
2022-09-28T00:03:51.998Z,6.73
2022-09-28T00:06:22.579Z,6.75
2022-09-28T00:08:52.214Z,6.44
2022-09-28T00:11:21.011Z,6.73
2022-09-28T00:13:53.780Z,6.73
2022-09-28T00:16:24.024Z,6.71
2022-09-28T00:18:51.532Z,6.75
2022-09-28T00:21:23.929Z,6.67
2022-09-28T00:24:15.255Z,6.64
2022-09-28T00:27:01.730Z,6.71
2022-09-28T00:29:32.266Z,6.72
2022-09-28T00:32:05.856Z,6.72
2022-09-28T00:34:36.016Z,6.71
2022-09-28T00:37:05.239Z,6.66
2022-09-28T00:39:32.243Z,6.58
2022-09-28T00:42:00.626Z,6.72
2022-09-28T00:44:37.853Z,6.72
2022-09-28T00:47:16.214Z,6.71
2022-09-28T00:49:56.859Z,6.69
2022-09-28T00:52:47.647Z,6.71
2022-09-28T00:55:23.270Z,6.69
2022-09-28T00:57:56.254Z,6.67
2022-09-28T01:00:24.666Z,6.66
2022-09-28T01:02:51.953Z,6.66
2022-09-28T01:05:20.833Z,6.64
2022-09-28T01:07:49.077Z,6.58
2022-09-28T01:10:17.033Z,6.45
2022-09-28T01:12:45.012Z,6.57
2022-09-28T01:15:12.209Z,6.59
2022-09-28T01:17:43.050Z,6.60
2022-09-28T01:20:40.609Z,6.58
2022-09-28T01:23:09.524Z,6.59
2022-09-28T01:25:55.299Z,6.60
2022-09-28T01:28:28.238Z,6.47
2022-09-28T01:31:03.363Z,6.59
2022-09-28T01:33:45.178Z,6.56
2022-09-28T01:36:19.767Z,6.48
2022-09-28T01:38:53.180Z,6.59
2022-09-28T01:41:22.943Z,6.58
2022-09-28T01:43:57.878Z,6.43
2022-09-28T01:46:34.695Z,6.55
2022-09-28T01:49:09.808Z,6.53
2022-09-28T01:51:51.280Z,6.58
2022-09-28T01:54:27.070Z,6.55
2022-09-28T01:57:15.976Z,6.38
2022-09-28T01:59:53.677Z,6.39
2022-09-28T02:02:27.591Z,6.46
2022-09-28T02:05:09.320Z,6.45
2022-09-28T02:07:46.316Z,6.48
2022-09-28T02:10:20.331Z,6.48
2022-09-28T02:12:54.290Z,6.38
2022-09-28T02:15:30.851Z,6.34
2022-09-28T02:18:02.554Z,6.48
2022-09-28T02:20:34.097Z,6.47
2022-09-28T02:23:04.946Z,6.48
2022-09-28T02:25:51.882Z,6.26
2022-09-28T02:28:21.971Z,6.47
2022-09-28T02:30:51.260Z,6.47
2022-09-28T02:33:36.627Z,6.35
2022-09-28T02:36:04.315Z,6.48
2022-09-28T02:38:37.316Z,6.47
2022-09-28T02:41:14.412Z,6.43
2022-09-28T02:43:47.587Z,6.48
2022-09-28T02:46:55.249Z,6.43
2022-09-28T02:49:44.427Z,6.45
2022-09-28T02:52:49.270Z,6.43
2022-09-28T02:55:40.896Z,6.43
2022-09-28T02:58:37.581Z,6.41
2022-09-28T03:01:30.484Z,6.43
2022-09-28T03:04:06.250Z,6.35
2022-09-28T03:06:57.113Z,6.41
2022-09-28T03:09:43.145Z,6.42
2022-09-28T03:12:14.242Z,6.19
2022-09-28T03:14:42.042Z,6.21
2022-09-28T03:17:09.261Z,6.43
2022-09-28T03:19:37.487Z,6.43
2022-09-28T03:22:05.799Z,6.36
2022-09-28T03:24:33.865Z,6.33
2022-09-28T03:27:03.000Z,6.37
2022-09-28T03:29:31.624Z,6.01
2022-09-28T03:32:03.001Z,6.21
2022-09-28T03:34:29.958Z,6.41
2022-09-28T03:36:57.225Z,6.40
2022-09-28T03:39:24.691Z,6.41
2022-09-28T03:41:51.671Z,6.41
2022-09-28T03:44:21.124Z,6.38
2022-09-28T03:46:48.888Z,6.45
2022-09-28T03:49:16.024Z,6.46
2022-09-28T03:51:43.414Z,6.42
2022-09-28T03:54:10.599Z,6.48
2022-09-28T03:56:37.559Z,6.26
2022-09-28T03:59:05.337Z,6.47
2022-09-28T04:01:32.461Z,6.33
2022-09-28T04:03:59.845Z,6.38
2022-09-28T04:06:27.334Z,6.55
2022-09-28T04:08:54.481Z,6.55
2022-09-28T04:11:21.967Z,6.54
2022-09-28T04:13:50.181Z,6.51
2022-09-28T04:16:18.665Z,6.46
2022-09-28T04:18:55.810Z,6.54
2022-09-28T04:21:41.652Z,6.57
2022-09-28T04:24:12.507Z,6.57
2022-09-28T04:26:39.631Z,6.47
2022-09-28T04:29:18.484Z,6.59
2022-09-28T04:31:56.644Z,6.56
2022-09-28T04:34:37.124Z,6.55
2022-09-28T04:37:06.207Z,6.60
2022-09-28T04:39:34.435Z,6.61
2022-09-28T04:42:02.815Z,6.47
2022-09-28T04:44:29.833Z,6.43
2022-09-28T04:47:04.932Z,6.66
2022-09-28T04:49:35.801Z,6.70
2022-09-28T04:52:18.987Z,6.71
2022-09-28T04:54:48.916Z,6.74
2022-09-28T04:57:16.728Z,6.75
2022-09-28T04:59:43.973Z,6.55
2022-09-28T05:02:12.194Z,6.79
2022-09-28T05:04:59.229Z,6.78
2022-09-28T05:07:36.307Z,6.62
2022-09-28T05:10:06.448Z,6.90
2022-09-28T05:12:34.279Z,6.90
2022-09-28T05:15:01.464Z,6.75
2022-09-28T05:17:31.024Z,6.96
2022-09-28T05:20:20.666Z,6.99
2022-09-28T05:22:47.642Z,6.98
2022-09-28T05:25:14.708Z,7.02
2022-09-28T05:28:01.934Z,7.04
2022-09-28T05:30:38.870Z,6.99
2022-09-28T05:33:28.125Z,7.10
2022-09-28T05:36:13.719Z,7.13
2022-09-28T05:38:42.523Z,7.21
2022-09-28T05:41:09.657Z,7.26
2022-09-28T05:43:36.983Z,7.17
2022-09-28T05:46:06.539Z,7.26
2022-09-28T05:48:36.539Z,7.40
2022-09-28T05:51:03.914Z,7.42
2022-09-28T05:53:30.983Z,7.49
2022-09-28T05:55:59.848Z,7.45
2022-09-28T05:58:28.649Z,7.47
2022-09-28T06:00:57.037Z,7.45
2022-09-28T06:03:25.199Z,7.41
2022-09-28T06:05:53.223Z,7.35
2022-09-28T06:08:20.710Z,7.60
2022-09-28T06:11:01.271Z,7.57
2022-09-28T06:13:29.518Z,7.64
2022-09-28T06:15:56.745Z,7.63
2022-09-28T06:18:23.910Z,7.74
2022-09-28T06:21:13.301Z,7.77
2022-09-28T06:23:49.234Z,7.80
2022-09-28T06:26:18.086Z,7.79
2022-09-28T06:28:45.807Z,7.80
2022-09-28T06:31:13.877Z,7.76
2022-09-28T06:33:46.361Z,7.84
2022-09-28T06:36:13.951Z,7.70
2022-09-28T06:38:41.007Z,7.77
2022-09-28T06:41:09.280Z,7.78
2022-09-28T06:43:39.702Z,7.92
2022-09-28T06:46:14.480Z,7.80
2022-09-28T06:48:49.033Z,7.99
2022-09-28T06:51:28.382Z,7.93
2022-09-28T06:53:58.123Z,8.08
2022-09-28T06:56:39.137Z,8.06
2022-09-28T06:59:06.899Z,8.11
2022-09-28T07:01:35.516Z,8.17
2022-09-28T07:04:43.307Z,8.15
2022-09-28T07:07:35.199Z,7.98
2022-09-28T07:10:15.140Z,8.16
2022-09-28T07:13:05.991Z,8.05
2022-09-28T07:16:13.513Z,7.77
2022-09-28T07:19:01.646Z,7.58
2022-09-28T07:22:01.845Z,7.12
2022-09-28T07:24:33.621Z,7.12
2022-09-28T07:27:41.237Z,7.83
2022-09-28T07:30:33.324Z,8.05
2022-09-28T07:33:25.541Z,7.99
2022-09-28T07:35:57.530Z,8.05
2022-09-28T07:38:28.378Z,8.26
2022-09-28T07:41:12.222Z,8.26
2022-09-28T07:43:51.046Z,8.22
2022-09-28T07:46:21.376Z,8.19
2022-09-28T07:48:56.886Z,8.20
2022-09-28T07:51:33.658Z,8.19
2022-09-28T07:54:21.006Z,8.22
2022-09-28T07:57:07.108Z,8.25
2022-09-28T07:59:54.992Z,8.29
2022-09-28T08:02:42.374Z,8.31
2022-09-28T08:05:10.783Z,8.45
2022-09-28T08:07:38.454Z,8.39
2022-09-28T08:10:09.367Z,8.56
2022-09-28T08:13:12.525Z,8.52
2022-09-28T08:16:03.590Z,8.28
2022-09-28T08:18:54.443Z,8.61
2022-09-28T08:21:42.094Z,8.64
2022-09-28T08:24:09.675Z,8.60
2022-09-28T08:26:37.047Z,8.56
2022-09-28T08:29:06.559Z,8.70
2022-09-28T08:31:52.105Z,8.69
2022-09-28T08:34:41.377Z,8.71
2022-09-28T08:37:38.058Z,8.59
2022-09-28T08:40:36.912Z,8.79
2022-09-28T08:43:45.843Z,8.71
2022-09-28T08:46:29.404Z,8.95
2022-09-28T08:49:47.829Z,8.85
2022-09-28T08:52:41.248Z,8.85
2022-09-28T08:55:35.336Z,8.85
2022-09-28T08:58:13.975Z,8.92
2022-09-28T09:00:51.191Z,8.84
2022-09-28T09:03:35.955Z,8.87
2022-09-28T09:06:47.820Z,8.88
2022-09-28T09:09:45.697Z,9.01
2022-09-28T09:12:32.290Z,9.05
2022-09-28T09:15:33.782Z,9.11
2022-09-28T09:18:30.359Z,9.13
2022-09-28T09:21:25.912Z,9.18
2022-09-28T09:24:03.911Z,9.25
2022-09-28T09:27:13.078Z,9.22
2022-09-28T09:30:06.425Z,9.10
2022-09-28T09:32:54.469Z,9.29
2022-09-28T09:35:37.608Z,9.30
2022-09-28T09:38:51.567Z,9.36
2022-09-28T09:41:32.140Z,9.40
2022-09-28T09:44:39.733Z,9.48
2022-09-28T09:47:43.888Z,9.23
2022-09-28T09:50:32.704Z,9.60
2022-09-28T09:53:21.020Z,9.55
2022-09-28T09:55:54.944Z,9.60
2022-09-28T09:58:38.585Z,9.71
2022-09-28T10:01:20.178Z,9.65
2022-09-28T10:05:04.978Z,9.63
2022-09-28T10:07:54.167Z,9.50
2022-09-28T10:10:45.677Z,9.57
2022-09-28T10:13:14.195Z,9.56
2022-09-28T10:15:43.477Z,9.44
2022-09-28T10:18:27.519Z,9.66
2022-09-28T10:21:21.267Z,9.64
2022-09-28T10:24:02.932Z,9.73
2022-09-28T10:26:37.685Z,9.50
2022-09-28T10:29:31.172Z,9.64
2022-09-28T10:31:58.412Z,9.66
2022-09-28T10:34:30.806Z,9.77
2022-09-28T10:37:09.922Z,9.77
2022-09-28T10:40:05.951Z,9.78
2022-09-28T10:42:36.308Z,9.79
2022-09-28T10:45:25.649Z,9.76
2022-09-28T10:47:52.962Z,9.53
2022-09-28T10:50:28.393Z,9.60
2022-09-28T10:53:20.653Z,9.87
2022-09-28T10:56:23.169Z,9.90
2022-09-28T10:59:03.531Z,9.72
2022-09-28T11:01:43.504Z,9.93
2022-09-28T11:04:22.872Z,9.98
2022-09-28T11:06:51.475Z,9.68
2022-09-28T11:09:33.782Z,9.84
2022-09-28T11:12:13.602Z,9.89
2022-09-28T11:14:43.801Z,9.90
2022-09-28T11:17:40.669Z,9.97
2022-09-28T11:20:27.526Z,10.07
2022-09-28T11:23:00.608Z,10.12
2022-09-28T11:25:33.271Z,9.96
2022-09-28T11:28:04.794Z,9.81
2022-09-28T11:30:45.237Z,9.88
2022-09-28T11:33:42.104Z,9.70
2022-09-28T11:36:38.254Z,9.61
2022-09-28T11:39:11.896Z,9.83
2022-09-28T11:42:01.538Z,9.52
2022-09-28T11:44:48.149Z,9.75
2022-09-28T11:47:35.714Z,9.75
2022-09-28T11:50:17.919Z,9.71
2022-09-28T11:52:50.260Z,9.71
2022-09-28T11:55:38.432Z,9.70
2022-09-28T11:58:24.902Z,9.47
2022-09-28T12:01:02.172Z,9.66
2022-09-28T12:03:50.874Z,9.70
2022-09-28T12:06:30.151Z,9.58
2022-09-28T12:09:07.285Z,9.79
2022-09-28T12:11:58.996Z,9.62
2022-09-28T12:14:47.148Z,9.86
2022-09-28T12:17:23.811Z,9.95
2022-09-28T12:20:01.824Z,9.83
2022-09-28T12:22:38.025Z,9.99
2022-09-28T12:25:13.634Z,9.93
2022-09-28T12:27:56.700Z,10.12
2022-09-28T12:30:27.918Z,10.12
2022-09-28T12:33:07.496Z,9.81
2022-09-28T12:35:52.729Z,9.81
2022-09-28T12:38:54.132Z,9.72
2022-09-28T12:41:50.153Z,9.50
2022-09-28T12:44:49.294Z,9.48
2022-09-28T12:47:57.323Z,9.45
2022-09-28T12:50:54.541Z,9.37
2022-09-28T12:53:44.878Z,9.35
2022-09-28T12:56:28.518Z,9.26
2022-09-28T12:59:32.234Z,8.85
2022-09-28T13:02:27.626Z,9.15
2022-09-28T13:04:54.941Z,9.19
2022-09-28T13:08:09.857Z,9.29
2022-09-28T13:10:50.455Z,9.24
2022-09-28T13:13:32.017Z,9.27
2022-09-28T13:16:17.644Z,9.26
2022-09-28T13:18:56.565Z,9.21
2022-09-28T13:21:32.097Z,9.40
2022-09-28T13:24:14.810Z,9.40
2022-09-28T13:26:48.725Z,9.38
2022-09-28T13:29:19.882Z,9.38
2022-09-28T13:31:52.095Z,9.27
2022-09-28T13:34:25.482Z,9.23
2022-09-28T13:37:20.051Z,9.29
2022-09-28T13:39:53.903Z,8.81
2022-09-28T13:42:24.092Z,9.32
2022-09-28T13:45:12.008Z,9.38
2022-09-28T13:47:44.657Z,9.33
2022-09-28T13:50:21.484Z,9.34
2022-09-28T13:52:54.738Z,9.28
2022-09-28T13:55:33.733Z,9.33
2022-09-28T13:58:53.285Z,9.40
2022-09-28T14:01:29.573Z,8.98
2022-09-28T14:04:15.229Z,9.42
2022-09-28T14:06:48.689Z,9.41
2022-09-28T14:09:36.013Z,9.37
2022-09-28T14:12:04.391Z,9.35
2022-09-28T14:14:52.099Z,9.23
2022-09-28T14:17:22.984Z,9.33
2022-09-28T14:20:02.791Z,9.34
2022-09-28T14:23:01.096Z,9.26
2022-09-28T14:25:32.076Z,9.27
2022-09-28T14:28:37.578Z,9.23
2022-09-28T14:31:28.204Z,8.84
2022-09-28T14:33:58.686Z,9.00
2022-09-28T14:36:56.550Z,9.13
2022-09-28T14:39:51.750Z,9.13
2022-09-28T14:42:23.032Z,9.11
2022-09-28T14:45:06.153Z,9.11
2022-09-28T14:47:41.748Z,9.11
2022-09-28T14:50:39.167Z,9.09
2022-09-28T14:53:12.308Z,9.13
2022-09-28T14:55:49.996Z,9.09
2022-09-28T14:58:25.106Z,9.14
2022-09-28T15:00:59.932Z,8.97
2022-09-28T15:03:30.760Z,8.78
2022-09-28T15:05:58.726Z,8.95
2022-09-28T15:08:36.652Z,8.92
2022-09-28T15:11:03.795Z,8.91
2022-09-28T15:13:31.003Z,8.74
2022-09-28T15:16:06.665Z,8.83
2022-09-28T15:19:17.694Z,8.80
2022-09-28T15:21:47.786Z,8.79
2022-09-28T15:24:34.912Z,8.59
2022-09-28T15:27:14.489Z,8.73
2022-09-28T15:29:41.850Z,8.68
2022-09-28T15:32:24.376Z,8.65
2022-09-28T15:34:51.686Z,8.58
2022-09-28T15:37:23.985Z,8.60
2022-09-28T15:39:52.735Z,8.53
2022-09-28T15:42:20.651Z,8.42
2022-09-28T15:45:22.250Z,8.50
2022-09-28T15:47:49.504Z,8.57
2022-09-28T15:50:27.267Z,8.44
2022-09-28T15:53:01.901Z,8.59
2022-09-28T15:55:33.679Z,8.31
2022-09-28T15:58:15.907Z,8.62
2022-09-28T16:00:46.866Z,8.42
2022-09-28T16:03:16.898Z,8.64
2022-09-28T16:05:46.905Z,8.64
2022-09-28T16:08:25.070Z,8.51
2022-09-28T16:11:07.601Z,8.66
2022-09-28T16:13:35.387Z,8.59
2022-09-28T16:16:05.456Z,8.47
2022-09-28T16:18:35.835Z,8.59
2022-09-28T16:21:38.255Z,8.61
2022-09-28T16:24:05.847Z,8.56
2022-09-28T16:26:36.037Z,8.47
2022-09-28T16:29:25.707Z,8.62
2022-09-28T16:31:53.330Z,8.63
2022-09-28T16:34:25.086Z,8.60
2022-09-28T16:36:53.157Z,8.49
2022-09-28T16:39:22.215Z,8.50
2022-09-28T16:41:56.176Z,8.59
2022-09-28T16:44:26.942Z,8.56
2022-09-28T16:46:57.579Z,8.63
2022-09-28T16:49:25.744Z,8.62
2022-09-28T16:51:52.831Z,8.51
2022-09-28T16:54:43.600Z,8.61
2022-09-28T16:57:13.612Z,8.59
2022-09-28T16:59:40.836Z,8.52
2022-09-28T17:05:13.600Z,8.27
2022-09-28T17:07:40.810Z,8.52
2022-09-28T17:10:50.003Z,8.48
2022-09-28T17:13:31.578Z,8.50
2022-09-28T17:15:59.507Z,8.39
2022-09-28T17:18:27.716Z,8.48
2022-09-28T17:20:58.070Z,8.65
2022-09-28T17:23:25.001Z,8.66
2022-09-28T17:25:54.603Z,8.53
2022-09-28T17:28:32.245Z,8.38
2022-09-28T17:30:59.433Z,8.36
2022-09-28T17:33:26.534Z,8.49
2022-09-28T17:36:01.696Z,8.39
2022-09-28T17:38:28.900Z,8.45
2022-09-28T17:40:55.977Z,8.22
2022-09-28T17:43:23.126Z,8.40
2022-09-28T17:45:50.851Z,8.36
2022-09-28T17:48:24.514Z,8.20
2022-09-28T17:51:03.929Z,8.28
2022-09-28T17:53:33.876Z,8.33
2022-09-28T17:56:01.472Z,8.32
2022-09-28T17:58:28.367Z,8.27
2022-09-28T18:00:55.475Z,8.28
2022-09-28T18:03:24.313Z,8.28
2022-09-28T18:06:07.889Z,8.17
2022-09-28T18:08:37.030Z,8.22
2022-09-28T18:11:04.475Z,8.21
2022-09-28T18:13:31.604Z,8.19
2022-09-28T18:15:59.138Z,8.18
2022-09-28T18:18:26.514Z,8.18
2022-09-28T18:20:53.699Z,8.10
2022-09-28T18:23:20.793Z,8.11
2022-09-28T18:25:48.426Z,8.17
2022-09-28T18:28:16.344Z,8.13
2022-09-28T18:30:45.633Z,8.20
2022-09-28T18:33:15.007Z,7.98
2022-09-28T18:35:52.186Z,7.98
2022-09-28T18:38:20.223Z,8.21
2022-09-28T18:40:48.579Z,8.16
2022-09-28T18:43:16.752Z,8.25
2022-09-28T18:45:43.981Z,8.08
2022-09-28T18:48:11.176Z,8.32
2022-09-28T18:50:38.380Z,8.35
2022-09-28T18:53:14.694Z,8.34
2022-09-28T18:55:43.441Z,8.36
2022-09-28T18:58:11.781Z,8.35
2022-09-28T19:00:41.768Z,8.24
2022-09-28T19:03:11.893Z,8.32
2022-09-28T19:05:43.819Z,8.29
2022-09-28T19:08:10.907Z,8.18
2022-09-28T19:10:38.150Z,8.03
2022-09-28T19:13:05.243Z,8.10
2022-09-28T19:15:34.846Z,8.20
2022-09-28T19:18:02.596Z,8.07
2022-09-28T19:20:29.858Z,8.20
2022-09-28T19:22:57.217Z,7.99
2022-09-28T19:25:24.428Z,8.11
2022-09-28T19:27:52.112Z,8.10
2022-09-28T19:30:19.370Z,8.01
2022-09-28T19:32:46.352Z,7.94
2022-09-28T19:35:13.953Z,8.14
2022-09-28T19:37:42.337Z,8.09
2022-09-28T19:40:10.617Z,8.07
2022-09-28T19:42:42.682Z,8.05
2022-09-28T19:45:11.397Z,8.05
2022-09-28T19:47:39.119Z,7.90
2022-09-28T19:50:06.992Z,7.76
2022-09-28T19:52:34.019Z,8.02
2022-09-28T19:55:01.352Z,7.88
2022-09-28T19:57:32.896Z,7.77
2022-09-28T20:00:03.492Z,7.97
2022-09-28T20:02:34.898Z,7.97
2022-09-28T20:05:03.038Z,7.71
2022-09-28T20:07:33.217Z,7.96
2022-09-28T20:10:00.403Z,7.90
2022-09-28T20:12:27.482Z,7.94
2022-09-28T20:14:55.081Z,7.96
2022-09-28T20:17:22.745Z,7.92
2022-09-28T20:19:52.145Z,7.87
2022-09-28T20:22:20.352Z,7.96
2022-09-28T20:24:47.849Z,7.92
2022-09-28T20:27:15.622Z,7.99
2022-09-28T20:29:43.273Z,7.96
2022-09-28T20:32:12.039Z,8.01
2022-09-28T20:34:39.571Z,8.01
2022-09-28T20:37:06.620Z,7.81
2022-09-28T20:39:34.727Z,7.92
2022-09-28T20:42:02.348Z,8.02
2022-09-28T20:44:29.377Z,7.82
2022-09-28T20:46:56.857Z,7.80
2022-09-28T20:49:24.772Z,7.99
2022-09-28T20:51:52.063Z,7.91
2022-09-28T20:54:22.221Z,7.91
2022-09-28T20:56:49.218Z,7.80
2022-09-28T20:59:16.431Z,7.84
2022-09-28T21:01:43.536Z,8.01
2022-09-28T21:04:11.206Z,8.05
2022-09-28T21:06:41.347Z,8.02
2022-09-28T21:09:09.986Z,7.93
2022-09-28T21:11:37.944Z,7.92
2022-09-28T21:14:08.239Z,7.88
2022-09-28T21:16:35.849Z,7.83
2022-09-28T21:19:03.704Z,7.93
2022-09-28T21:21:30.896Z,7.92
2022-09-28T21:23:58.829Z,7.86
2022-09-28T21:26:28.107Z,7.96
2022-09-28T21:29:07.504Z,7.97
2022-09-28T21:31:48.032Z,7.92
2022-09-28T21:34:21.756Z,7.97
2022-09-28T21:36:51.468Z,7.99
2022-09-28T21:39:20.243Z,7.97
2022-09-28T21:41:49.437Z,7.91
2022-09-28T21:44:17.066Z,7.93
2022-09-28T21:46:45.086Z,7.68
2022-09-28T21:49:14.512Z,7.90
2022-09-28T21:51:41.620Z,7.89
2022-09-28T21:54:14.583Z,7.88
2022-09-28T21:56:46.758Z,7.80
2022-09-28T21:59:18.621Z,7.71
2022-09-28T22:01:48.444Z,7.84
2022-09-28T22:04:17.305Z,7.69
2022-09-28T22:06:45.196Z,7.84
2022-09-28T22:09:14.149Z,7.83
2022-09-28T22:11:43.105Z,7.80
2022-09-28T22:14:10.830Z,7.84
2022-09-28T22:16:38.022Z,7.76
2022-09-28T22:19:05.074Z,7.82
2022-09-28T22:21:35.142Z,7.71
2022-09-28T22:24:04.041Z,7.82
2022-09-28T22:26:32.863Z,7.57
2022-09-28T22:29:02.268Z,7.74
2022-09-28T22:31:32.695Z,7.70
2022-09-28T22:33:59.887Z,7.55
2022-09-28T22:36:27.313Z,7.74
2022-09-28T22:38:55.302Z,7.75
2022-09-28T22:41:22.831Z,7.73
2022-09-28T22:43:53.323Z,7.62
2022-09-28T22:46:23.849Z,7.66
2022-09-28T22:48:57.115Z,7.67
2022-09-28T22:51:27.065Z,7.73
2022-09-28T22:53:54.730Z,7.72
2022-09-28T22:56:34.067Z,7.72
2022-09-28T22:59:02.499Z,7.64
2022-09-28T23:01:30.205Z,7.66
2022-09-28T23:03:57.963Z,7.53
2022-09-28T23:06:27.026Z,7.58
2022-09-28T23:08:54.507Z,7.51
2022-09-28T23:11:21.460Z,7.63
2022-09-28T23:13:52.736Z,7.64
2022-09-28T23:16:23.730Z,7.43
2022-09-28T23:18:51.707Z,7.63
2022-09-28T23:21:21.946Z,7.57
2022-09-28T23:23:54.061Z,7.60
2022-09-28T23:26:28.477Z,7.50
2022-09-28T23:28:57.661Z,7.58
2022-09-28T23:31:28.670Z,7.51
2022-09-28T23:34:01.693Z,7.54
2022-09-28T23:36:29.207Z,7.57
2022-09-28T23:38:57.930Z,7.56
2022-09-28T23:41:28.425Z,7.57
2022-09-28T23:43:56.075Z,7.45
2022-09-28T23:46:23.177Z,7.57
2022-09-28T23:48:50.626Z,7.56
2022-09-28T23:51:17.917Z,7.40
2022-09-28T23:53:46.121Z,7.61
2022-09-28T23:56:14.582Z,7.60
2022-09-28T23:58:41.949Z,7.63
